Time;durP1;ratioP1;P1;durP2;ratioP2;P2;SDS_P1;SDS_P2;PMS_P1;PMS_P2;Temp;Humidity;BMP_temperature;BMP_pressure;BME280_temperature;BME280_humidity;BME280_pressure;Samples;Min_cycle;Max_cycle;Signal;HPM_P1;HPM_P2
2022/07/25 00:00:23;;;;;;;0.60;0.60;;;22.10;65.90;;;;;;4880706;29;20044;-76
2022/07/25 00:02:49;;;;;;;0.90;0.90;;;22.10;66.00;;;;;;4897535;29;20041;-76
2022/07/25 00:05:15;;;;;;;0.60;0.60;;;22.00;66.10;;;;;;4897439;29;20076;-76
2022/07/25 00:07:41;;;;;;;0.60;0.60;;;22.00;66.10;;;;;;4896522;29;20071;-77
2022/07/25 00:10:07;;;;;;;0.60;0.60;;;22.00;66.20;;;;;;4865166;29;20044;-76
2022/07/25 00:12:33;;;;;;;0.70;0.70;;;22.10;66.30;;;;;;4897596;29;20044;-76
2022/07/25 00:14:59;;;;;;;0.80;0.80;;;21.90;66.40;;;;;;4897330;29;20041;-76
2022/07/25 00:17:24;;;;;;;0.50;0.50;;;21.90;66.40;;;;;;4897757;29;20036;-76
2022/07/25 00:19:50;;;;;;;0.68;0.65;;;21.90;66.50;;;;;;4897704;29;20032;-76
2022/07/25 00:22:16;;;;;;;1.20;0.98;;;21.80;66.50;;;;;;4897331;29;20036;-77
2022/07/25 00:24:42;;;;;;;0.60;0.60;;;21.80;66.70;;;;;;4897545;29;20399;-76
2022/07/25 00:27:08;;;;;;;1.38;0.90;;;21.80;66.70;;;;;;4897438;29;20053;-77
2022/07/25 00:29:33;;;;;;;1.05;0.75;;;21.80;66.80;;;;;;4897406;29;20131;-76
2022/07/25 00:31:59;;;;;;;0.80;0.80;;;21.70;66.90;;;;;;4880335;29;20029;-77
2022/07/25 00:34:25;;;;;;;0.80;0.80;;;21.70;67.00;;;;;;4896340;29;20120;-76
2022/07/25 00:36:50;;;;;;;0.73;0.73;;;21.70;67.00;;;;;;4896874;29;20073;-77
2022/07/25 00:39:16;;;;;;;0.80;0.80;;;21.70;67.10;;;;;;4896875;29;20096;-77
2022/07/25 00:41:43;;;;;;;0.70;0.70;;;21.60;67.20;;;;;;4864820;29;20048;-76
2022/07/25 00:44:09;;;;;;;0.95;0.85;;;21.60;67.30;;;;;;4897416;29;20052;-76
2022/07/25 00:46:38;;;;;;;0.70;0.70;;;21.60;67.40;;;;;;4897126;29;20129;-77
2022/07/25 00:49:04;;;;;;;0.80;0.80;;;21.60;67.50;;;;;;4878564;29;20088;-77
2022/07/25 00:51:29;;;;;;;0.75;0.70;;;21.50;67.40;;;;;;4896829;29;20064;-77
2022/07/25 00:53:56;;;;;;;0.70;0.70;;;21.50;67.50;;;;;;4897172;29;20037;-76
2022/07/25 00:56:23;;;;;;;0.98;0.70;;;21.50;67.70;;;;;;4880236;29;20032;-76
2022/07/25 00:58:49;;;;;;;0.70;0.70;;;21.50;67.70;;;;;;4896843;29;20043;-77
2022/07/25 01:01:14;;;;;;;0.70;0.70;;;21.40;67.80;;;;;;4880878;29;20032;-77
2022/07/25 01:03:41;;;;;;;1.10;1.00;;;21.40;67.80;;;;;;4879847;29;20043;-76
2022/07/25 01:06:07;;;;;;;0.70;0.70;;;21.40;68.00;;;;;;4879715;29;20063;-76
2022/07/25 01:08:33;;;;;;;1.00;0.90;;;21.40;68.10;;;;;;4879962;29;20032;-76
2022/07/25 01:10:59;;;;;;;0.90;0.80;;;21.40;68.10;;;;;;4897197;29;20048;-76
2022/07/25 01:13:25;;;;;;;0.88;0.88;;;21.30;68.20;;;;;;4897055;29;20039;-77
2022/07/25 01:15:51;;;;;;;0.73;0.73;;;21.30;68.20;;;;;;4897102;29;20539;-76
2022/07/25 01:18:17;;;;;;;0.82;0.82;;;21.30;68.20;;;;;;4896376;29;20502;-77
2022/07/25 01:20:43;;;;;;;1.17;0.98;;;21.30;68.40;;;;;;4897189;29;20037;-77
2022/07/25 01:23:09;;;;;;;0.68;0.68;;;21.20;68.30;;;;;;4880412;29;20033;-77
2022/07/25 01:25:34;;;;;;;0.73;0.73;;;21.20;68.40;;;;;;4896956;29;20119;-76
2022/07/25 01:28:00;;;;;;;0.73;0.73;;;21.20;68.40;;;;;;4880158;29;20049;-77
2022/07/25 01:30:26;;;;;;;0.90;0.90;;;21.10;68.50;;;;;;4879664;29;20035;-76
2022/07/25 01:32:52;;;;;;;0.85;0.80;;;21.20;68.60;;;;;;4896654;29;20388;-77
2022/07/25 01:35:18;;;;;;;0.80;0.80;;;21.10;68.60;;;;;;4896789;29;20073;-77
2022/07/25 01:37:44;;;;;;;1.15;1.05;;;21.10;68.60;;;;;;4896209;29;20055;-77
2022/07/25 01:40:10;;;;;;;0.80;0.80;;;21.10;68.60;;;;;;4879832;29;20045;-76
2022/07/25 01:42:36;;;;;;;1.35;1.00;;;21.10;68.70;;;;;;4896310;29;20100;-77
2022/07/25 01:45:03;;;;;;;1.20;1.10;;;21.10;68.60;;;;;;4896631;29;20094;-76
2022/07/25 01:47:28;;;;;;;0.80;0.80;;;21.20;68.80;;;;;;4895978;29;20487;-76
2022/07/25 01:49:54;;;;;;;0.80;0.80;;;21.10;68.70;;;;;;4896160;29;20132;-77
2022/07/25 01:52:20;;;;;;;0.80;0.80;;;21.00;68.60;;;;;;4896487;29;20040;-77
2022/07/25 01:54:46;;;;;;;0.88;0.88;;;21.10;68.80;;;;;;4894222;29;20029;-76
2022/07/25 01:57:11;;;;;;;1.35;0.85;;;21.10;68.70;;;;;;4896331;29;20064;-77
2022/07/25 01:59:39;;;;;;;0.85;0.82;;;21.10;68.80;;;;;;4863987;29;20093;-77
2022/07/25 02:02:05;;;;;;;1.05;0.80;;;21.10;68.80;;;;;;4895958;29;20524;-76
2022/07/25 02:04:32;;;;;;;1.00;0.95;;;21.10;68.90;;;;;;4896160;29;20040;-76
2022/07/25 02:06:58;;;;;;;1.17;0.98;;;21.00;68.80;;;;;;4895911;29;20068;-77
2022/07/25 02:09:24;;;;;;;0.85;0.85;;;21.10;68.90;;;;;;4894632;29;20432;-76
2022/07/25 02:11:49;;;;;;;1.13;0.98;;;21.00;69.00;;;;;;4896254;29;20032;-77
2022/07/25 02:14:15;;;;;;;1.00;1.00;;;21.00;69.00;;;;;;4896259;29;20075;-77
2022/07/25 02:16:41;;;;;;;1.30;0.93;;;20.90;69.10;;;;;;4897790;29;20045;-76
2022/07/25 02:19:07;;;;;;;1.10;1.00;;;21.00;69.20;;;;;;4896392;29;20029;-77
2022/07/25 02:21:33;;;;;;;0.88;0.80;;;20.90;69.20;;;;;;4896225;29;20500;-77
2022/07/25 02:23:58;;;;;;;0.70;0.70;;;21.00;69.30;;;;;;4896432;29;20384;-77
2022/07/25 02:26:24;;;;;;;0.80;0.80;;;20.90;69.40;;;;;;4896217;29;20033;-77
2022/07/25 02:28:50;;;;;;;0.75;0.75;;;20.90;69.40;;;;;;4896480;29;20041;-77
2022/07/25 02:31:16;;;;;;;1.35;0.90;;;21.00;69.40;;;;;;4879886;29;20037;-77
2022/07/25 02:33:43;;;;;;;1.00;0.90;;;20.90;69.40;;;;;;4866813;29;20032;-77
2022/07/25 02:36:10;;;;;;;1.10;1.00;;;20.90;69.40;;;;;;4899464;29;20037;-77
2022/07/25 02:38:36;;;;;;;0.70;0.70;;;20.80;69.40;;;;;;4898774;29;20143;-77
2022/07/25 02:41:02;;;;;;;0.88;0.88;;;20.90;70.00;;;;;;4899624;29;20063;-77
2022/07/25 02:43:28;;;;;;;1.05;0.95;;;20.90;69.40;;;;;;4882415;29;20475;-77
2022/07/25 02:45:53;;;;;;;1.38;1.08;;;20.90;69.40;;;;;;4881863;29;20073;-77
2022/07/25 02:48:19;;;;;;;1.08;0.98;;;20.90;69.50;;;;;;4898767;29;20060;-77
2022/07/25 02:50:45;;;;;;;1.25;1.00;;;20.80;69.50;;;;;;4898588;29;20391;-77
2022/07/25 02:53:11;;;;;;;0.90;0.90;;;20.80;69.60;;;;;;4898598;29;20048;-77
2022/07/25 02:55:36;;;;;;;1.67;1.10;;;20.80;69.70;;;;;;4898567;29;20048;-77
2022/07/25 02:58:02;;;;;;;0.90;0.88;;;20.80;70.40;;;;;;4898979;29;20128;-77
2022/07/25 03:00:29;;;;;;;1.30;1.20;;;20.80;69.70;;;;;;4881720;29;20043;-77
2022/07/25 03:02:55;;;;;;;1.08;0.98;;;20.80;69.70;;;;;;4881638;29;20432;-77
2022/07/25 03:05:21;;;;;;;0.82;0.80;;;20.80;69.80;;;;;;4881970;29;20096;-77
2022/07/25 03:07:47;;;;;;;1.27;1.10;;;20.80;69.70;;;;;;4881566;29;20492;-77
2022/07/25 03:10:13;;;;;;;1.45;0.95;;;20.70;69.70;;;;;;4898384;29;20138;-77
2022/07/25 03:12:40;;;;;;;1.15;1.05;;;20.70;69.80;;;;;;4898369;29;20048;-77
2022/07/25 03:15:07;;;;;;;1.50;1.17;;;20.70;69.90;;;;;;4881934;29;20100;-77
2022/07/25 03:17:33;;;;;;;1.45;1.17;;;20.70;70.00;;;;;;4898731;29;20554;-77
2022/07/25 03:19:59;;;;;;;1.35;1.20;;;20.70;70.10;;;;;;4898424;29;20068;-76
2022/07/25 03:22:25;;;;;;;2.17;1.20;;;20.60;70.10;;;;;;4898254;29;20079;-77
2022/07/25 03:24:52;;;;;;;1.10;1.00;;;20.60;70.20;;;;;;4881579;29;20052;-77
2022/07/25 03:27:18;;;;;;;1.20;1.10;;;20.60;70.20;;;;;;4898350;29;20044;-77
2022/07/25 03:29:45;;;;;;;1.25;1.08;;;20.70;70.30;;;;;;4898276;29;20040;-77
2022/07/25 03:32:10;;;;;;;1.25;1.10;;;20.50;70.30;;;;;;4881302;29;20092;-77
2022/07/25 03:34:36;;;;;;;1.60;1.20;;;20.60;70.40;;;;;;4898323;29;20132;-77
2022/07/25 03:37:03;;;;;;;1.40;1.20;;;20.50;70.50;;;;;;4898231;29;20040;-77
2022/07/25 03:39:29;;;;;;;1.20;1.10;;;20.50;70.50;;;;;;4898472;29;20040;-77
2022/07/25 03:41:55;;;;;;;1.45;1.20;;;20.50;70.50;;;;;;4897816;29;20052;-77
2022/07/25 03:44:22;;;;;;;1.02;0.93;;;20.50;70.90;;;;;;4880917;29;20047;-77
2022/07/25 03:46:48;;;;;;;0.88;0.88;;;20.50;70.60;;;;;;4898070;29;20033;-77
2022/07/25 03:49:14;;;;;;;0.82;0.80;;;20.50;70.60;;;;;;4898154;29;20044;-77
2022/07/25 03:51:40;;;;;;;1.35;1.20;;;20.50;70.60;;;;;;4881106;29;20132;-77
2022/07/25 03:54:07;;;;;;;1.10;1.00;;;20.60;71.20;;;;;;4898227;29;20504;-77
2022/07/25 03:56:48;;;;;;;1.10;0.95;;;20.60;70.50;;;;;;4879468;29;20037;-77
2022/07/25 03:59:17;;;;;;;0.80;0.80;;;20.50;70.60;;;;;;4898336;29;20380;-77
2022/07/25 04:01:44;;;;;;;1.33;1.10;;;20.50;70.60;;;;;;4898027;29;20032;-77
2022/07/25 04:04:10;;;;;;;1.08;1.00;;;20.50;70.60;;;;;;4897603;29;20043;-77
2022/07/25 04:06:37;;;;;;;1.58;1.10;;;20.50;70.60;;;;;;4916419;29;20134;-77
2022/07/25 04:09:03;;;;;;;1.20;1.10;;;20.50;70.80;;;;;;4916821;29;20040;-77
2022/07/25 04:11:29;;;;;;;1.25;1.00;;;20.40;70.80;;;;;;4916303;29;20407;-77
2022/07/25 04:13:56;;;;;;;1.17;1.00;;;20.40;70.90;;;;;;4916258;29;20048;-77
2022/07/25 04:16:22;;;;;;;1.50;1.20;;;20.40;71.00;;;;;;4916587;29;20100;-77
2022/07/25 04:18:49;;;;;;;1.40;1.17;;;20.40;71.00;;;;;;4917055;29;20040;-77
2022/07/25 04:21:15;;;;;;;1.55;1.25;;;20.50;71.40;;;;;;4916998;29;20495;-77
2022/07/25 04:23:40;;;;;;;1.65;1.05;;;20.40;71.00;;;;;;4916688;29;20177;-77
2022/07/25 04:26:06;;;;;;;1.10;1.00;;;20.50;71.10;;;;;;4916447;29;20372;-77
2022/07/25 04:28:32;;;;;;;0.95;0.90;;;20.40;71.00;;;;;;4914884;29;20055;-77
2022/07/25 04:30:58;;;;;;;1.10;1.00;;;20.40;71.10;;;;;;4915897;29;20123;-77
2022/07/25 04:33:24;;;;;;;1.13;1.02;;;20.50;71.10;;;;;;4880526;29;20043;-77
2022/07/25 04:35:50;;;;;;;1.75;1.20;;;20.40;71.00;;;;;;4880701;29;20072;-76
2022/07/25 04:38:16;;;;;;;1.00;0.90;;;20.50;71.10;;;;;;4897389;29;20044;-77
2022/07/25 04:40:41;;;;;;;1.15;0.93;;;20.50;71.10;;;;;;4879032;29;20076;-77
2022/07/25 04:43:07;;;;;;;1.08;0.95;;;20.50;71.20;;;;;;4915847;29;20036;-77
2022/07/25 04:45:33;;;;;;;1.45;1.30;;;20.50;71.20;;;;;;4899208;29;20078;-76
2022/07/25 04:48:00;;;;;;;1.40;1.08;;;20.50;71.20;;;;;;4896395;29;20053;-76
2022/07/25 04:50:26;;;;;;;1.00;0.90;;;20.60;71.20;;;;;;4895845;29;20476;-76
2022/07/25 04:52:52;;;;;;;1.13;1.02;;;20.70;71.20;;;;;;4896628;29;20039;-76
2022/07/25 04:55:18;;;;;;;1.10;1.00;;;20.70;71.20;;;;;;4897126;29;20033;-76
2022/07/25 04:57:43;;;;;;;1.48;1.10;;;20.70;71.10;;;;;;4897330;29;20392;-79
2022/07/25 05:00:11;;;;;;;1.40;1.00;;;20.70;71.00;;;;;;4864936;29;20445;-76
2022/07/25 05:02:37;;;;;;;1.52;1.08;;;20.80;71.70;;;;;;4897273;29;20045;-76
2022/07/25 05:05:03;;;;;;;1.20;0.90;;;20.80;71.00;;;;;;4896973;29;20421;-76
2022/07/25 05:07:29;;;;;;;1.52;1.00;;;20.70;70.90;;;;;;4896869;29;20041;-76
2022/07/25 05:09:56;;;;;;;0.98;0.90;;;20.90;71.00;;;;;;4896905;29;20496;-77
2022/07/25 05:12:21;;;;;;;1.15;1.05;;;20.90;71.00;;;;;;4896861;29;20037;-77
2022/07/25 05:14:47;;;;;;;1.10;1.00;;;21.00;71.00;;;;;;4896723;29;20040;-76
2022/07/25 05:17:13;;;;;;;1.20;1.10;;;21.10;70.90;;;;;;4896959;29;20028;-76
2022/07/25 05:19:38;;;;;;;1.27;1.08;;;21.10;70.80;;;;;;4897372;29;20049;-76
2022/07/25 05:22:04;;;;;;;1.05;1.00;;;21.20;70.80;;;;;;4897043;29;20515;-76
2022/07/25 05:24:34;;;;;;;1.45;1.10;;;21.20;70.70;;;;;;4895269;29;20092;-76
2022/07/25 05:27:00;;;;;;;1.40;1.20;;;21.30;70.60;;;;;;4896590;29;20498;-76
2022/07/25 05:29:26;;;;;;;1.27;1.17;;;21.40;70.40;;;;;;4888105;29;20036;-76
2022/07/25 05:31:52;;;;;;;1.20;1.10;;;21.50;70.10;;;;;;4896949;29;20484;-76
2022/07/25 05:34:18;;;;;;;1.00;1.00;;;21.60;69.80;;;;;;4897093;29;20064;-76
2022/07/25 05:36:44;;;;;;;1.77;1.27;;;21.70;69.60;;;;;;4896939;29;20029;-75
2022/07/25 05:39:10;;;;;;;1.40;1.30;;;21.80;70.00;;;;;;4896315;29;20107;-76
2022/07/25 05:41:35;;;;;;;1.27;1.13;;;21.80;69.20;;;;;;4896935;29;20033;-76
2022/07/25 05:44:01;;;;;;;1.58;1.17;;;21.90;69.00;;;;;;4911324;29;20491;-76
2022/07/25 05:46:27;;;;;;;1.80;1.40;;;22.00;68.90;;;;;;4880344;29;20523;-76
2022/07/25 05:48:53;;;;;;;2.22;1.40;;;22.00;68.70;;;;;;4896198;29;20041;-77
2022/07/25 05:51:18;;;;;;;2.17;1.55;;;22.10;68.60;;;;;;4864246;29;20041;-78
2022/07/25 05:53:44;;;;;;;1.98;1.38;;;22.20;68.50;;;;;;4897278;29;20539;-74
2022/07/25 05:56:10;;;;;;;2.30;1.50;;;22.30;68.20;;;;;;4864588;29;20055;-75
2022/07/25 05:58:39;;;;;;;1.70;1.38;;;22.30;68.00;;;;;;4896554;29;20036;-74
2022/07/25 06:01:06;;;;;;;1.90;1.40;;;22.40;67.70;;;;;;4880314;29;20040;-75
2022/07/25 06:03:33;;;;;;;1.95;1.52;;;22.50;67.60;;;;;;4896620;29;20448;-75
2022/07/25 06:05:59;;;;;;;2.17;1.63;;;22.60;67.50;;;;;;4898364;29;20051;-75
2022/07/25 06:08:27;;;;;;;2.22;1.40;;;22.60;67.30;;;;;;4899730;29;20492;-74
2022/07/25 06:10:53;;;;;;;2.83;1.60;;;22.70;67.20;;;;;;4900978;29;20516;-75
2022/07/25 06:13:19;;;;;;;1.50;1.38;;;22.80;67.20;;;;;;4883801;29;20041;-75
2022/07/25 06:15:45;;;;;;;2.88;1.85;;;22.90;67.10;;;;;;4900363;29;20048;-75
2022/07/25 06:18:11;;;;;;;2.72;1.90;;;22.90;66.90;;;;;;4900790;29;20043;-75
2022/07/25 06:20:36;;;;;;;2.00;1.63;;;22.90;66.80;;;;;;4901452;29;20048;-75
2022/07/25 06:23:03;;;;;;;1.95;1.50;;;23.00;66.90;;;;;;4905040;29;20044;-76
2022/07/25 06:25:29;;;;;;;1.88;1.48;;;23.10;66.80;;;;;;4885723;29;20057;-75
2022/07/25 06:27:56;;;;;;;2.13;1.50;;;23.10;66.70;;;;;;4884652;29;20076;-75
2022/07/25 06:30:21;;;;;;;2.10;1.60;;;23.10;66.60;;;;;;4902924;29;20060;-76
2022/07/25 06:32:48;;;;;;;2.17;1.65;;;23.20;66.50;;;;;;4905405;29;20033;-75
2022/07/25 06:35:14;;;;;;;2.22;1.58;;;23.20;66.40;;;;;;4901831;29;20037;-75
2022/07/25 06:37:40;;;;;;;2.30;1.60;;;23.30;66.40;;;;;;4901338;29;20045;-75
2022/07/25 06:40:07;;;;;;;2.72;1.85;;;23.30;66.30;;;;;;4885056;29;20044;-75
2022/07/25 06:42:41;;;;;;;2.17;1.67;;;23.30;66.30;;;;;;4867655;29;20049;-76
2022/07/25 06:45:09;;;;;;;2.22;1.60;;;23.30;66.30;;;;;;4869946;29;20109;-78
2022/07/25 06:47:36;;;;;;;2.38;1.60;;;23.40;66.40;;;;;;4871188;29;20054;-75
2022/07/25 06:50:04;;;;;;;2.45;1.85;;;23.40;66.30;;;;;;4883052;29;20519;-75
2022/07/25 06:52:30;;;;;;;2.78;1.75;;;23.40;66.40;;;;;;4899620;29;20032;-75
2022/07/25 06:54:59;;;;;;;1.92;1.50;;;23.40;66.30;;;;;;4867176;29;20128;-75
2022/07/25 06:57:25;;;;;;;1.88;1.60;;;23.40;66.40;;;;;;4843364;29;20037;-75
2022/07/25 07:00:06;;;;;;;2.38;1.63;;;23.40;66.50;;;;;;4860211;29;20438;-75
2022/07/25 07:02:32;;;;;;;1.58;1.35;;;23.30;66.60;;;;;;4847279;29;20606;-77
2022/07/25 07:05:02;;;;;;;1.67;1.52;;;23.30;66.70;;;;;;4844153;29;20046;-76
2022/07/25 07:07:28;;;;;;;2.25;1.40;;;23.40;66.90;;;;;;4843988;29;20060;-76
2022/07/25 07:10:01;;;;;;;2.42;1.42;;;23.20;66.90;;;;;;4844040;29;20049;-75
2022/07/25 07:12:30;;;;;;;2.13;1.50;;;23.30;67.00;;;;;;4843847;29;20049;-76
2022/07/25 07:15:54;;;;;;;1.55;1.30;;;23.30;66.90;;;;;;4859242;29;20037;-76
2022/07/25 07:25:05;;;;;;;1.80;1.30;;;23.50;66.50;;;;;;4815889;29;20042;-75
2022/07/25 07:27:34;;;;;;;2.15;1.60;;;23.60;66.50;;;;;;4825803;29;20058;-76
2022/07/25 07:29:59;;;;;;;1.75;1.40;;;23.70;66.40;;;;;;4841275;29;20053;-76
2022/07/25 07:32:25;;;;;;;1.50;1.30;;;23.70;66.30;;;;;;4825991;29;20577;-76
2022/07/25 07:35:37;;;;;;;1.20;1.10;;;23.80;66.10;;;;;;4848903;29;20077;-76
2022/07/25 07:41:25;;;;;;;1.50;1.13;;;23.80;66.10;;;;;;4766422;30;20116;-77
2022/07/25 07:51:28;;;;;;;0.90;0.90;;;24.00;66.00;;;;;;4714413;30;20053;-76
2022/07/25 07:56:31;;;;;;;1.45;0.93;;;24.10;65.90;;;;;;4716394;30;20413;-75
2022/07/25 07:58:59;;;;;;;0.85;0.85;;;24.20;65.70;;;;;;4705222;30;20037;-76
2022/07/25 08:01:25;;;;;;;0.80;0.80;;;24.10;65.60;;;;;;4701397;30;20651;-76
2022/07/25 08:03:51;;;;;;;1.35;0.90;;;24.10;65.60;;;;;;4714397;30;20053;-76
2022/07/25 08:06:52;;;;;;;1.08;0.80;;;24.10;65.40;;;;;;4717738;30;20048;-76
2022/07/25 08:09:29;;;;;;;1.33;0.93;;;24.40;65.40;;;;;;4652611;30;20063;-77
2022/07/25 08:11:55;;;;;;;0.73;0.73;;;24.50;65.10;;;;;;4655221;30;20062;-77
2022/07/25 08:21:35;;;;;;;0.77;0.77;;;24.60;64.60;;;;;;4644002;30;20487;-76
2022/07/25 08:24:01;;;;;;;0.80;0.80;;;24.40;64.90;;;;;;4633925;30;20071;-75
2022/07/25 08:26:30;;;;;;;2.55;0.80;;;24.30;65.10;;;;;;4646900;30;20047;-76
2022/07/25 08:29:04;;;;;;;0.60;0.60;;;24.30;65.20;;;;;;4645520;30;20178;-77
2022/07/25 08:31:36;;;;;;;1.05;0.90;;;24.40;65.10;;;;;;4646902;30;20507;-76
2022/07/25 08:34:53;;;;;;;0.80;0.80;;;24.70;64.70;;;;;;4628466;31;20504;-78
2022/07/25 08:37:36;;;;;;;1.00;0.80;;;25.10;63.70;;;;;;4636323;30;20055;-76
2022/07/25 08:40:55;;;;;;;0.85;0.70;;;25.60;62.90;;;;;;4614327;31;20122;-80
2022/07/25 08:53:57;;;;;;;0.60;0.60;;;25.50;62.90;;;;;;4749197;29;20105;-78
2022/07/25 08:56:59;;;;;;;0.50;0.50;;;25.40;63.20;;;;;;4853760;29;20314;-76
2022/07/25 08:59:24;;;;;;;0.50;0.50;;;25.50;63.30;;;;;;4807269;29;20057;-77
2022/07/25 09:01:52;;;;;;;0.40;0.40;;;25.60;63.20;;;;;;4818654;29;20138;-76
2022/07/25 09:04:18;;;;;;;0.60;0.60;;;25.80;62.90;;;;;;4818537;29;20092;-75
2022/07/25 09:07:00;;;;;;;0.40;0.40;;;25.80;62.40;;;;;;4813724;29;20057;-76
2022/07/25 09:09:35;;;;;;;0.40;0.40;;;25.90;62.40;;;;;;4803778;29;20126;-76
2022/07/25 09:12:03;;;;;;;0.82;0.60;;;25.80;62.70;;;;;;4815550;29;20047;-75
2022/07/25 09:14:32;;;;;;;0.55;0.55;;;25.80;62.80;;;;;;4823540;29;20027;-75
2022/07/25 09:17:08;;;;;;;0.70;0.70;;;25.80;62.80;;;;;;4821727;29;20030;-76
2022/07/25 09:19:36;;;;;;;0.52;0.40;;;26.00;62.70;;;;;;4786905;29;20040;-76
2022/07/25 09:22:13;;;;;;;0.65;0.40;;;26.00;62.70;;;;;;4789984;29;20145;-75
2022/07/25 09:24:54;;;;;;;0.88;0.57;;;26.20;62.50;;;;;;4779019;29;20051;-76
2022/07/25 09:28:39;;;;;;;0.47;0.47;;;26.40;62.10;;;;;;4795130;29;20055;-77
2022/07/25 09:51:35;;;;;;;0.40;0.40;;;26.20;62.80;;;;;;4518637;31;20088;-76
2022/07/25 10:04:42;;;;;;;1.05;0.50;;;26.50;61.90;;;;;;4524976;31;20609;-77
2022/07/25 10:07:23;;;;;;;0.40;0.40;;;26.50;62.40;;;;;;4540790;31;20125;-77
2022/07/25 10:13:12;;;;;;;0.55;0.47;;;26.60;62.50;;;;;;4592388;31;20083;-75
2022/07/25 10:16:04;;;;;;;0.40;0.40;;;26.60;62.20;;;;;;4597004;31;20056;-77
2022/07/25 10:22:03;;;;;;;0.45;0.45;;;26.80;62.20;;;;;;4575832;31;20115;-75
2022/07/25 10:24:46;;;;;;;1.23;0.50;;;26.60;62.50;;;;;;4589067;31;20123;-76
2022/07/25 10:31:26;;;;;;;0.95;0.60;;;26.50;62.70;;;;;;4633850;31;20073;-75
2022/07/25 10:37:49;;;;;;;0.50;0.50;;;26.80;62.50;;;;;;4570568;31;20058;-78
2022/07/25 10:40:39;;;;;;;1.55;0.60;;;26.70;61.90;;;;;;4524689;31;20107;-78
2022/07/25 10:43:21;;;;;;;0.50;0.50;;;26.60;61.90;;;;;;4546846;31;20132;-77
2022/07/25 10:45:51;;;;;;;0.85;0.68;;;26.60;62.90;;;;;;4558160;31;20050;-74
2022/07/25 10:48:32;;;;;;;3.03;0.60;;;26.80;62.20;;;;;;4570681;31;20061;-75
2022/07/25 10:51:02;;;;;;;0.60;0.60;;;26.90;62.00;;;;;;4572557;31;20112;-75
2022/07/25 10:53:34;;;;;;;1.08;0.45;;;26.90;62.00;;;;;;4564293;31;20054;-74
2022/07/25 10:56:08;;;;;;;0.50;0.50;;;27.00;61.90;;;;;;4571076;31;20259;-75
2022/07/25 10:58:52;;;;;;;0.93;0.60;;;27.00;61.60;;;;;;4606941;30;20035;-74
2022/07/25 11:01:24;;;;;;;0.60;0.60;;;27.10;61.30;;;;;;4655824;30;20042;-76
2022/07/25 11:03:52;;;;;;;0.70;0.52;;;27.10;61.20;;;;;;4664811;30;20039;-75
2022/07/25 11:06:42;;;;;;;1.05;0.57;;;27.10;61.20;;;;;;4671909;30;20086;-75
2022/07/25 11:09:17;;;;;;;;;;;27.00;61.20;;;;;;4750626;30;20070;-75
2022/07/25 11:11:48;;;;;;;1.90;0.60;;;27.00;61.50;;;;;;4750839;30;19910;-75
2022/07/25 11:14:19;;;;;;;0.70;0.60;;;27.10;61.30;;;;;;4830457;29;20039;-76
2022/07/25 11:16:50;;;;;;;1.05;0.60;;;27.10;61.00;;;;;;4901622;29;20039;-76
2022/07/25 11:19:19;;;;;;;1.88;0.68;;;27.20;60.80;;;;;;4885113;29;20055;-74
2022/07/25 11:21:48;;;;;;;1.02;0.68;;;27.20;60.70;;;;;;4866018;29;20041;-75
2022/07/25 11:24:19;;;;;;;0.50;0.50;;;27.20;60.60;;;;;;4884843;29;20048;-74
2022/07/25 11:27:11;;;;;;;0.70;0.70;;;27.30;60.50;;;;;;4868624;29;20056;-77
2022/07/25 11:29:42;;;;;;;1.05;0.63;;;27.20;60.30;;;;;;4874721;29;20052;-76
2022/07/25 11:32:12;;;;;;;1.05;0.65;;;27.20;60.30;;;;;;4870515;29;20064;-77
2022/07/25 11:34:55;;;;;;;0.88;0.80;;;27.10;60.40;;;;;;4869708;29;20534;-75
2022/07/25 11:37:24;;;;;;;0.77;0.70;;;27.00;60.70;;;;;;4876111;29;20056;-76
2022/07/25 11:39:50;;;;;;;1.27;0.68;;;26.90;60.80;;;;;;4883350;29;20055;-74
2022/07/25 11:42:18;;;;;;;0.60;0.60;;;26.70;60.80;;;;;;4866110;29;20411;-75
2022/07/25 11:45:09;;;;;;;1.38;0.60;;;26.80;60.80;;;;;;4850668;29;20048;-74
2022/07/25 11:47:35;;;;;;;1.33;0.88;;;26.70;60.90;;;;;;4882991;29;20492;-75
2022/07/25 11:50:09;;;;;;;0.93;0.80;;;26.50;60.90;;;;;;4861750;29;20140;-76
2022/07/25 11:52:38;;;;;;;1.25;0.70;;;26.40;61.10;;;;;;4863595;29;20045;-76
2022/07/25 11:55:07;;;;;;;0.63;0.63;;;26.30;61.50;;;;;;4825418;29;20801;-75
2022/07/25 11:57:36;;;;;;;0.82;0.60;;;26.30;61.50;;;;;;4824702;29;20133;-75
2022/07/25 12:00:41;;;;;;;1.08;0.73;;;26.20;61.60;;;;;;4828004;29;20121;-77
2022/07/25 12:14:41;;;;;;;0.70;0.60;;;25.70;61.70;;;;;;4729304;30;20106;-75
2022/07/25 12:27:30;;;;;;;4.50;0.98;;;25.80;60.90;;;;;;4624915;30;20089;-77
2022/07/25 12:29:56;;;;;;;1.17;0.80;;;25.80;60.60;;;;;;4646831;30;20646;-76
2022/07/25 12:32:22;;;;;;;1.63;0.70;;;25.80;60.60;;;;;;4647727;30;20035;-75
2022/07/25 12:34:48;;;;;;;1.08;0.80;;;25.80;60.60;;;;;;4650453;30;20054;-75
2022/07/25 12:37:14;;;;;;;1.75;0.70;;;25.70;60.40;;;;;;4646679;30;20111;-75
2022/07/25 12:44:06;;;;;;;1.77;0.93;;;25.70;60.40;;;;;;4658396;30;20105;-75
2022/07/25 12:53:50;;;;;;;2.67;0.80;;;25.50;60.60;;;;;;4642827;30;20044;-75
2022/07/25 12:56:37;;;;;;;1.58;0.70;;;25.40;60.60;;;;;;4611657;31;20053;-75
2022/07/25 12:59:03;;;;;;;1.67;0.90;;;25.40;60.80;;;;;;4691108;30;20132;-75
2022/07/25 13:01:31;;;;;;;1.15;0.93;;;25.30;61.00;;;;;;4731647;30;20444;-77
2022/07/25 13:06:50;;;;;;;1.92;1.00;;;24.90;61.70;;;;;;4716568;30;20516;-73
2022/07/25 13:16:50;;;;;;;0.82;0.80;;;24.40;62.60;;;;;;4644191;30;20045;-76
2022/07/25 13:19:36;;;;;;;0.70;0.70;;;24.20;62.70;;;;;;4645759;30;20055;-78
2022/07/25 13:22:02;;;;;;;0.90;0.70;;;24.00;62.90;;;;;;4619483;30;20051;-76
2022/07/25 13:24:27;;;;;;;0.80;0.80;;;23.90;63.10;;;;;;4627017;31;20214;-74
2022/07/25 13:26:53;;;;;;;0.93;0.65;;;23.80;63.20;;;;;;4626251;31;20091;-75
2022/07/25 13:29:35;;;;;;;0.80;0.80;;;23.70;63.20;;;;;;4612905;31;20559;-79
2022/07/25 13:32:01;;;;;;;1.33;0.70;;;23.80;63.30;;;;;;4660927;30;20445;-74
2022/07/25 13:34:27;;;;;;;0.85;0.70;;;23.80;63.20;;;;;;4665468;30;20060;-75
2022/07/25 13:36:53;;;;;;;1.35;0.80;;;23.90;62.90;;;;;;4683484;30;20048;-75
2022/07/25 13:39:22;;;;;;;0.60;0.60;;;24.00;62.40;;;;;;4696712;30;20131;-75
2022/07/25 13:41:52;;;;;;;1.40;0.70;;;24.30;62.00;;;;;;4696563;30;20048;-74
2022/07/25 13:44:18;;;;;;;0.80;0.80;;;24.40;61.50;;;;;;4685954;30;20049;-75
2022/07/25 13:46:48;;;;;;;1.30;0.80;;;24.70;61.10;;;;;;4664352;30;20470;-76
2022/07/25 13:49:15;;;;;;;0.82;0.70;;;24.80;60.80;;;;;;4679431;30;20054;-75
2022/07/25 13:51:41;;;;;;;1.73;1.00;;;24.90;60.60;;;;;;4684735;30;20042;-75
2022/07/25 13:54:07;;;;;;;1.70;1.10;;;24.90;60.10;;;;;;4806754;29;20037;-76
2022/07/25 13:56:33;;;;;;;1.55;1.00;;;25.00;60.10;;;;;;4857252;29;20049;-77
2022/07/25 13:59:04;;;;;;;1.98;1.00;;;25.10;60.00;;;;;;4857438;29;20432;-76
2022/07/25 14:01:31;;;;;;;0.90;0.85;;;25.20;60.00;;;;;;4857009;29;20049;-75
2022/07/25 14:03:57;;;;;;;2.65;0.98;;;25.30;59.90;;;;;;4842417;29;20046;-77
2022/07/25 14:06:33;;;;;;;1.55;1.02;;;25.30;59.70;;;;;;4856659;29;20072;-78
2022/07/25 14:08:59;;;;;;;2.08;1.17;;;25.30;59.50;;;;;;4839205;29;20111;-76
2022/07/25 14:11:30;;;;;;;0.82;0.70;;;25.30;59.50;;;;;;4823020;29;20042;-76
2022/07/25 14:13:56;;;;;;;0.95;0.70;;;25.20;59.60;;;;;;4822476;29;20078;-76
2022/07/25 14:16:25;;;;;;;1.65;0.80;;;25.40;59.80;;;;;;4823456;29;20049;-77
2022/07/25 14:18:51;;;;;;;0.90;0.70;;;25.40;59.70;;;;;;4862414;29;20056;-74
2022/07/25 14:21:17;;;;;;;1.42;0.85;;;25.40;59.50;;;;;;4879084;29;20047;-74
2022/07/25 14:23:43;;;;;;;1.00;0.75;;;25.40;59.50;;;;;;4879648;29;20040;-75
2022/07/25 14:26:09;;;;;;;0.98;0.85;;;25.40;59.50;;;;;;4879592;29;20041;-75
2022/07/25 14:28:34;;;;;;;1.25;0.60;;;25.40;59.50;;;;;;4882551;29;20049;-75
2022/07/25 14:31:03;;;;;;;1.35;0.90;;;25.50;59.50;;;;;;4883023;29;20044;-75
2022/07/25 14:33:29;;;;;;;1.55;0.98;;;25.50;59.30;;;;;;4852295;29;20040;-76
2022/07/25 14:35:57;;;;;;;0.85;0.80;;;25.50;59.20;;;;;;4883278;29;20046;-76
2022/07/25 14:51:57;;;;;;;1.33;0.98;;;25.40;59.20;;;;;;4628413;30;20126;-75
2022/07/25 14:54:27;;;;;;;1.20;0.80;;;25.30;59.10;;;;;;4616048;31;20178;-76
2022/07/25 15:19:53;;;;;;;1.10;0.80;;;25.70;58.40;;;;;;6300559;22;20118;-75
2022/07/25 15:23:10;;;;;;;0.68;0.68;;;25.70;58.10;;;;;;6255239;22;20011;-75
2022/07/25 15:26:09;;;;;;;1.40;0.73;;;25.70;58.10;;;;;;6187151;23;20044;-75
2022/07/25 15:42:09;;;;;;;0.90;0.70;;;25.70;57.80;;;;;;5774274;24;20023;-73
2022/07/25 16:05:15;;;;;;;1.02;0.50;;;25.60;57.50;;;;;;5173615;27;20154;-76
2022/07/25 16:07:41;;;;;;;0.45;0.40;;;25.60;57.40;;;;;;5153373;27;20060;-75
2022/07/25 16:10:08;;;;;;;2.85;0.60;;;25.50;57.30;;;;;;5172100;27;20117;-75
2022/07/25 16:12:34;;;;;;;0.35;0.35;;;25.40;57.30;;;;;;5153440;27;20055;-75
2022/07/25 16:15:00;;;;;;;0.52;0.43;;;25.30;57.30;;;;;;5170349;27;20038;-75
2022/07/25 16:17:27;;;;;;;0.75;0.43;;;25.30;57.50;;;;;;5153622;27;20050;-75